createdAt,value
2018-11-23T00:01:46.757Z,3.40
2018-11-23T00:05:50.433Z,3.40
2018-11-23T00:09:54.132Z,3.40
2018-11-23T00:13:57.842Z,3.50
2018-11-23T00:18:01.570Z,3.50
2018-11-23T00:22:05.365Z,3.50
2018-11-23T00:26:09.084Z,3.50
2018-11-23T00:30:14.590Z,3.50
2018-11-23T00:34:18.277Z,3.50
2018-11-23T00:38:21.992Z,3.50
2018-11-23T00:42:25.674Z,3.50
2018-11-23T00:46:29.605Z,3.50
2018-11-23T00:50:33.284Z,3.50
2018-11-23T00:54:36.970Z,3.50
2018-11-23T00:58:40.665Z,3.50
2018-11-23T01:02:44.889Z,3.60
2018-11-23T01:06:48.605Z,3.50
2018-11-23T01:10:52.296Z,3.60
2018-11-23T01:14:55.985Z,3.60
2018-11-23T01:18:59.672Z,3.60
2018-11-23T01:23:03.404Z,3.60
2018-11-23T01:27:07.100Z,3.60
2018-11-23T01:31:10.831Z,3.60
2018-11-23T01:35:14.674Z,3.60
2018-11-23T01:39:18.340Z,3.60
2018-11-23T01:43:22.015Z,3.60
2018-11-23T01:47:25.717Z,3.60
2018-11-23T01:51:29.357Z,3.70
2018-11-23T01:55:33.043Z,3.60
2018-11-23T01:59:36.747Z,3.60
2018-11-23T02:03:40.453Z,3.60
2018-11-23T02:07:47.341Z,3.60
2018-11-23T02:11:51.092Z,3.70
2018-11-23T02:15:54.818Z,3.70
2018-11-23T02:24:01.882Z,3.70
2018-11-23T02:28:05.754Z,3.70
2018-11-23T02:32:09.478Z,3.70
2018-11-23T02:36:13.225Z,3.70
2018-11-23T02:40:18.053Z,3.70
2018-11-23T02:44:21.773Z,3.70
2018-11-23T02:48:25.489Z,3.70
2018-11-23T02:52:29.199Z,3.80
2018-11-23T02:56:44.028Z,3.80
2018-11-23T03:00:47.741Z,3.80
2018-11-23T03:04:51.444Z,3.70
2018-11-23T03:08:55.198Z,3.80
2018-11-23T03:12:58.901Z,3.80
2018-11-23T03:17:02.617Z,3.80
2018-11-23T03:21:06.417Z,3.80
2018-11-23T03:25:11.117Z,3.80
2018-11-23T03:29:14.822Z,3.80
2018-11-23T03:33:18.539Z,3.80
2018-11-23T03:37:22.220Z,3.80
2018-11-23T03:41:25.953Z,3.80
2018-11-23T03:45:29.761Z,3.80
2018-11-23T03:49:33.458Z,3.80
2018-11-23T03:53:37.189Z,3.80
2018-11-23T03:57:40.898Z,3.80
2018-11-23T04:01:44.640Z,3.80
2018-11-23T04:05:48.362Z,3.70
2018-11-23T04:09:52.091Z,3.70
2018-11-23T04:13:55.821Z,3.80
2018-11-23T04:17:59.477Z,3.80
2018-11-23T04:22:03.356Z,3.80
2018-11-23T04:26:07.121Z,3.80
2018-11-23T04:30:13.842Z,3.80
2018-11-23T04:34:17.573Z,3.80
2018-11-23T04:38:21.262Z,3.80
2018-11-23T04:42:24.993Z,3.80
2018-11-23T04:46:28.717Z,3.80
2018-11-23T04:50:32.377Z,3.80
2018-11-23T04:54:36.237Z,3.80
2018-11-23T04:58:39.932Z,3.80
2018-11-23T05:02:44.333Z,3.80
2018-11-23T05:06:48.117Z,3.80
2018-11-23T05:10:51.773Z,3.80
2018-11-23T05:17:41.058Z,3.80
2018-11-23T05:21:44.757Z,3.90
2018-11-23T05:25:48.420Z,3.80
2018-11-23T05:29:52.325Z,3.90
2018-11-23T05:33:56.009Z,3.90
2018-11-23T05:37:59.708Z,3.90
2018-11-23T05:42:03.476Z,3.90
2018-11-23T05:46:07.121Z,3.90
2018-11-23T05:53:54.485Z,3.90
2018-11-23T05:57:58.185Z,3.90
2018-11-23T06:02:01.897Z,4.00
2018-11-23T06:06:05.742Z,4.00
2018-11-23T06:10:12.417Z,3.90
2018-11-23T06:14:16.090Z,4.00
2018-11-23T06:18:19.788Z,4.00
2018-11-23T06:22:23.481Z,4.00
2018-11-23T06:26:28.308Z,4.00
2018-11-23T06:30:32.007Z,4.00
2018-11-23T06:34:35.758Z,4.40
2018-11-23T06:38:39.593Z,4.30
2018-11-23T06:42:43.338Z,4.20
2018-11-23T06:46:47.002Z,4.20
2018-11-23T06:50:50.757Z,4.20
2018-11-23T06:54:54.444Z,4.20
2018-11-23T06:58:58.130Z,4.20
2018-11-23T07:03:01.890Z,4.20
2018-11-23T07:07:05.838Z,4.20
2018-11-23T07:11:09.590Z,4.20
2018-11-23T07:15:13.570Z,4.20
2018-11-23T07:19:17.262Z,4.20
2018-11-23T07:23:20.992Z,4.20
2018-11-23T07:27:24.645Z,4.20
2018-11-23T07:31:28.430Z,4.20
2018-11-23T07:35:32.158Z,4.20
2018-11-23T07:39:47.013Z,4.20
2018-11-23T07:43:50.719Z,4.20
2018-11-23T07:47:54.386Z,4.20
2018-11-23T07:51:58.122Z,4.20
2018-11-23T07:56:01.807Z,4.30
2018-11-23T08:00:14.521Z,4.30
2018-11-23T08:04:18.243Z,4.30
2018-11-23T08:08:21.905Z,4.30
2018-11-23T08:12:25.593Z,4.40
2018-11-23T08:16:29.298Z,4.40
2018-11-23T08:20:32.976Z,4.40
2018-11-23T08:24:36.648Z,4.50
2018-11-23T08:28:40.321Z,4.50
2018-11-23T08:32:44.220Z,4.70
2018-11-23T08:36:47.921Z,4.70
2018-11-23T08:40:51.606Z,4.60
2018-11-23T08:44:55.363Z,4.60
2018-11-23T08:48:59.034Z,4.60
2018-11-23T08:53:02.730Z,4.70
2018-11-23T08:57:06.506Z,4.70
2018-11-23T09:01:10.316Z,4.70
2018-11-23T09:05:14.269Z,4.70
2018-11-23T09:09:17.983Z,4.80
2018-11-23T09:13:21.662Z,4.70
2018-11-23T09:17:25.367Z,4.80
2018-11-23T09:21:29.077Z,4.80
2018-11-23T09:25:32.774Z,4.80
2018-11-23T09:29:36.473Z,4.80
2018-11-23T09:33:40.217Z,4.80
2018-11-23T09:37:44.399Z,4.80
2018-11-23T09:41:48.238Z,4.80
2018-11-23T09:45:51.971Z,4.90
2018-11-23T09:54:29.931Z,4.90
2018-11-23T09:58:33.647Z,5.30
2018-11-23T10:02:37.328Z,5.20
2018-11-23T10:06:41.085Z,5.10
2018-11-23T10:10:44.824Z,5.10
2018-11-23T10:14:48.505Z,5.20
2018-11-23T10:18:52.201Z,5.20
2018-11-23T10:22:55.969Z,5.20
2018-11-23T10:26:59.677Z,5.20
2018-11-23T10:31:03.382Z,5.30
2018-11-23T10:35:08.025Z,5.30
2018-11-23T10:39:11.729Z,5.30
2018-11-23T10:43:15.449Z,5.30
2018-11-23T10:47:19.123Z,5.60
2018-11-23T10:51:22.841Z,6.00
2018-11-23T10:55:28.294Z,6.10
2018-11-23T10:59:32.061Z,6.20
2018-11-23T11:03:36.666Z,6.30
2018-11-23T11:07:40.441Z,6.40
2018-11-23T11:11:44.207Z,6.40
2018-11-23T11:15:47.898Z,6.50
2018-11-23T11:19:51.609Z,6.50
2018-11-23T11:23:55.317Z,6.50
2018-11-23T11:27:58.997Z,6.50
2018-11-23T11:32:02.669Z,6.50
2018-11-23T11:36:06.372Z,6.10
2018-11-23T11:40:12.228Z,5.90
2018-11-23T11:44:15.949Z,5.80
2018-11-23T11:48:19.690Z,5.60
2018-11-23T11:52:23.388Z,5.60
2018-11-23T11:56:27.039Z,5.60
2018-11-23T12:00:30.806Z,5.50
2018-11-23T12:04:34.586Z,5.50
2018-11-23T12:08:38.282Z,5.40
2018-11-23T12:12:42.065Z,5.50
2018-11-23T12:16:45.743Z,5.40
2018-11-23T12:20:49.484Z,5.40
2018-11-23T12:24:53.453Z,5.40
2018-11-23T12:28:57.143Z,5.40
2018-11-23T12:33:00.844Z,5.40
2018-11-23T12:37:04.553Z,5.40
2018-11-23T12:41:08.274Z,5.30
2018-11-23T12:45:13.675Z,5.30
2018-11-23T12:49:17.384Z,5.30
2018-11-23T12:53:21.229Z,5.30
2018-11-23T12:57:24.934Z,5.20
2018-11-23T13:01:28.626Z,5.20
2018-11-23T13:05:33.992Z,5.20
2018-11-23T13:09:37.809Z,5.20
2018-11-23T13:13:41.592Z,5.20
2018-11-23T13:17:45.283Z,5.20
2018-11-23T13:21:49.092Z,5.20
2018-11-23T13:25:52.821Z,5.20
2018-11-23T13:29:56.697Z,5.20
2018-11-23T13:34:00.394Z,5.20
2018-11-23T13:38:04.112Z,5.30
2018-11-23T13:42:07.837Z,5.30
2018-11-23T13:46:11.503Z,5.30
2018-11-23T13:50:16.632Z,5.30
2018-11-23T13:54:20.336Z,5.20
2018-11-23T13:58:24.175Z,5.20
2018-11-23T14:02:29.027Z,5.20
2018-11-23T14:06:32.728Z,5.40
2018-11-23T14:10:36.501Z,5.40
2018-11-23T14:14:40.221Z,5.40
2018-11-23T14:18:43.944Z,5.30
2018-11-23T14:22:47.706Z,5.30
2018-11-23T14:26:51.416Z,5.20
2018-11-23T14:30:55.096Z,5.20
2018-11-23T14:34:58.820Z,5.30
2018-11-23T14:39:02.530Z,5.20
2018-11-23T14:43:06.238Z,5.20
2018-11-23T14:47:09.924Z,5.20
2018-11-23T14:51:13.686Z,5.10
2018-11-23T14:55:17.818Z,5.50
2018-11-23T14:59:21.589Z,5.70
2018-11-23T15:03:25.371Z,5.90
2018-11-23T15:07:29.123Z,5.90
2018-11-23T15:11:32.861Z,6.00
2018-11-23T15:15:38.985Z,6.00
2018-11-23T15:19:42.740Z,6.00
2018-11-23T15:23:46.484Z,6.10
2018-11-23T15:27:50.194Z,6.10
2018-11-23T15:31:53.941Z,6.00
2018-11-23T15:35:57.667Z,6.00
2018-11-23T15:40:01.398Z,6.00
2018-11-23T15:44:05.808Z,5.90
2018-11-23T15:48:10.336Z,5.90
2018-11-23T15:52:14.105Z,5.90
2018-11-23T15:56:17.948Z,5.80
2018-11-23T16:00:25.480Z,5.80
2018-11-23T16:04:29.200Z,5.80
2018-11-23T16:08:33.093Z,5.70
2018-11-23T16:12:36.812Z,5.60
2018-11-23T16:16:40.513Z,5.60
2018-11-23T16:20:45.645Z,5.60
2018-11-23T16:24:49.350Z,5.50
2018-11-23T16:28:53.087Z,5.40
2018-11-23T16:32:58.006Z,5.40
2018-11-23T16:37:01.721Z,5.30
2018-11-23T16:41:05.809Z,5.20
2018-11-23T16:45:13.666Z,5.10
2018-11-23T16:49:17.457Z,5.10
2018-11-23T16:53:21.329Z,5.00
2018-11-23T16:57:25.038Z,4.90
2018-11-23T17:01:28.716Z,4.80
2018-11-23T17:05:34.160Z,4.80
2018-11-23T17:09:37.933Z,4.70
2018-11-23T17:13:41.693Z,4.20
2018-11-23T17:17:45.862Z,3.90
2018-11-23T17:21:49.525Z,4.10
2018-11-23T17:25:53.313Z,4.20
2018-11-23T17:29:57.012Z,4.20
2018-11-23T17:34:00.775Z,4.30
2018-11-23T17:38:04.577Z,4.20
2018-11-23T17:42:08.289Z,4.20
2018-11-23T17:46:12.105Z,4.20
2018-11-23T17:50:18.326Z,4.20
2018-11-23T17:54:22.108Z,4.20
2018-11-23T17:58:25.834Z,4.20
2018-11-23T18:02:30.706Z,4.20
2018-11-23T18:06:34.401Z,4.10
2018-11-23T18:10:38.154Z,4.10
2018-11-23T18:14:41.918Z,4.10
2018-11-23T18:18:45.634Z,4.10
2018-11-23T18:22:50.025Z,4.10
2018-11-23T18:26:53.723Z,4.00
2018-11-23T18:30:57.434Z,4.00
2018-11-23T18:35:01.161Z,3.90
2018-11-23T18:39:06.951Z,3.90
2018-11-23T18:43:10.675Z,3.90
2018-11-23T18:47:14.424Z,3.90
2018-11-23T18:51:18.124Z,3.90
2018-11-23T18:55:21.849Z,3.80
2018-11-23T18:59:25.549Z,3.80
2018-11-23T19:03:29.266Z,3.80
2018-11-23T19:07:33.067Z,3.80
2018-11-23T19:11:41.975Z,3.80
2018-11-23T19:15:45.713Z,3.70
2018-11-23T19:19:49.426Z,3.70
2018-11-23T19:23:53.144Z,3.70
2018-11-23T19:27:56.845Z,3.70
2018-11-23T19:32:00.558Z,3.60
2018-11-23T19:36:04.350Z,3.60
2018-11-23T19:40:10.618Z,3.60
2018-11-23T19:44:14.333Z,3.60
2018-11-23T19:48:18.072Z,3.50
2018-11-23T19:52:21.837Z,3.50
2018-11-23T19:56:25.549Z,3.50
2018-11-23T20:00:29.293Z,3.40
2018-11-23T20:04:32.985Z,3.40
2018-11-23T20:08:36.668Z,3.30
2018-11-23T20:12:40.421Z,3.30
2018-11-23T20:16:44.155Z,3.20
2018-11-23T20:20:47.889Z,3.20
2018-11-23T20:24:51.590Z,3.20
2018-11-23T20:28:55.252Z,3.10
2018-11-23T20:32:58.980Z,3.10
2018-11-23T20:37:02.725Z,3.10
2018-11-23T20:41:06.451Z,3.00
2018-11-23T20:45:11.263Z,3.10
2018-11-23T20:49:14.937Z,3.10
2018-11-23T20:53:18.645Z,3.00
2018-11-23T20:57:22.398Z,3.00
2018-11-23T21:01:26.086Z,3.00
2018-11-23T21:05:29.793Z,3.00
2018-11-23T21:09:33.499Z,2.90
2018-11-23T21:13:37.239Z,2.90
2018-11-23T21:17:40.915Z,2.90
2018-11-23T21:21:44.637Z,2.90
2018-11-23T21:25:48.385Z,2.90
2018-11-23T21:29:52.073Z,2.90
2018-11-23T21:33:55.822Z,3.00
2018-11-23T21:37:59.540Z,3.00
2018-11-23T21:42:03.253Z,3.10
2018-11-23T21:46:07.026Z,3.10
2018-11-23T21:50:24.849Z,3.10
2018-11-23T21:54:22.190Z,3.20
2018-11-23T21:58:25.899Z,3.30
2018-11-23T22:02:29.720Z,3.30
2018-11-23T22:06:33.448Z,3.30
2018-11-23T22:10:37.236Z,3.40
2018-11-23T22:14:41.008Z,3.40
2018-11-23T22:18:44.748Z,3.40
2018-11-23T22:22:48.446Z,3.50
2018-11-23T22:26:52.137Z,3.50
2018-11-23T22:30:55.882Z,3.50
2018-11-23T22:34:59.559Z,3.50
2018-11-23T22:39:03.453Z,3.50
2018-11-23T22:43:07.424Z,3.60
2018-11-23T22:47:11.144Z,3.60
2018-11-23T22:51:14.847Z,3.60
2018-11-23T22:55:19.205Z,3.70
2018-11-23T22:59:22.933Z,3.70
2018-11-23T23:03:26.750Z,3.70
2018-11-23T23:07:30.504Z,3.70
2018-11-23T23:11:34.301Z,3.70
2018-11-23T23:15:37.983Z,3.70
2018-11-23T23:19:41.662Z,3.80
2018-11-23T23:23:45.393Z,3.70
2018-11-23T23:27:49.104Z,3.70
2018-11-23T23:31:52.842Z,3.70
2018-11-23T23:35:56.496Z,3.70
2018-11-23T23:40:00.222Z,3.70
2018-11-23T23:44:04.022Z,3.70
2018-11-23T23:48:07.738Z,3.70
2018-11-23T23:52:11.465Z,3.70
2018-11-23T23:56:15.145Z,3.70
